createdAt,value
2022-10-18T00:00:30.851Z,11.70
2022-10-18T00:03:02.583Z,11.70
2022-10-18T00:05:34.754Z,11.70
2022-10-18T00:08:06.486Z,11.60
2022-10-18T00:10:38.198Z,11.60
2022-10-18T00:13:10.463Z,11.60
2022-10-18T00:15:49.899Z,11.60
2022-10-18T00:18:22.386Z,11.50
2022-10-18T00:21:03.047Z,11.50
2022-10-18T00:23:35.615Z,11.50
2022-10-18T00:26:19.350Z,11.50
2022-10-18T00:28:57.826Z,11.50
2022-10-18T00:31:35.631Z,11.50
2022-10-18T00:34:12.547Z,11.40
2022-10-18T00:36:45.279Z,11.40
2022-10-18T00:39:19.513Z,11.30
2022-10-18T00:41:51.872Z,11.40
2022-10-18T00:44:26.544Z,11.40
2022-10-18T00:47:02.085Z,11.30
2022-10-18T00:49:40.349Z,11.30
2022-10-18T00:52:19.165Z,11.30
2022-10-18T00:54:52.652Z,11.20
2022-10-18T00:57:25.198Z,11.20
2022-10-18T00:59:57.011Z,11.10
2022-10-18T01:02:29.335Z,11.10
2022-10-18T01:05:01.178Z,11.10
2022-10-18T01:08:00.518Z,11.10
2022-10-18T01:10:42.822Z,11.10
2022-10-18T01:13:46.413Z,11.10
2022-10-18T01:16:26.487Z,11.20
2022-10-18T01:19:28.037Z,11.00
2022-10-18T01:22:11.747Z,11.00
2022-10-18T01:24:57.073Z,11.00
2022-10-18T01:27:55.358Z,11.00
2022-10-18T01:30:59.663Z,11.10
2022-10-18T01:36:43.479Z,11.10
2022-10-18T01:39:20.639Z,11.00
2022-10-18T01:41:54.790Z,11.00
2022-10-18T01:44:29.380Z,11.00
2022-10-18T01:47:02.225Z,11.00
2022-10-18T01:49:34.396Z,10.90
2022-10-18T01:52:09.657Z,10.90
2022-10-18T01:54:46.071Z,10.90
2022-10-18T01:57:35.677Z,10.90
2022-10-18T02:00:15.469Z,10.90
2022-10-18T02:03:04.207Z,11.00
2022-10-18T02:05:35.942Z,10.90
2022-10-18T02:08:26.388Z,10.90
2022-10-18T02:11:08.271Z,10.90
2022-10-18T02:13:51.967Z,11.00
2022-10-18T02:16:33.554Z,11.00
2022-10-18T02:19:18.283Z,11.00
2022-10-18T02:21:51.085Z,11.00
2022-10-18T02:24:29.403Z,11.00
2022-10-18T02:27:02.058Z,10.90
2022-10-18T02:29:34.596Z,10.90
2022-10-18T02:32:08.614Z,10.90
2022-10-18T02:34:45.650Z,10.90
2022-10-18T02:37:18.599Z,10.80
2022-10-18T02:39:51.372Z,10.70
2022-10-18T02:42:23.167Z,10.70
2022-10-18T02:44:54.994Z,10.60
2022-10-18T02:47:26.753Z,10.60
2022-10-18T02:49:58.552Z,10.60
2022-10-18T02:52:30.320Z,10.50
2022-10-18T02:55:02.017Z,10.50
2022-10-18T02:57:34.252Z,10.50
2022-10-18T03:00:07.117Z,10.50
2022-10-18T03:02:38.853Z,10.50
2022-10-18T03:05:10.661Z,10.60
2022-10-18T03:07:42.399Z,10.60
2022-10-18T03:10:14.206Z,10.60
2022-10-18T03:12:45.901Z,10.60
2022-10-18T03:15:17.615Z,10.60
2022-10-18T03:17:49.317Z,10.60
2022-10-18T03:20:21.096Z,10.60
2022-10-18T03:22:52.823Z,10.60
2022-10-18T03:25:24.546Z,10.60
2022-10-18T03:27:56.277Z,10.70
2022-10-18T03:30:27.982Z,10.70
2022-10-18T03:32:59.855Z,10.70
2022-10-18T03:35:31.694Z,10.70
2022-10-18T03:38:03.747Z,10.80
2022-10-18T03:40:35.453Z,10.80
2022-10-18T03:43:07.204Z,10.80
2022-10-18T03:45:39.555Z,10.80
2022-10-18T03:48:11.290Z,10.70
2022-10-18T03:50:43.714Z,10.70
2022-10-18T03:53:15.464Z,10.70
2022-10-18T03:55:54.510Z,10.70
2022-10-18T03:58:26.331Z,10.80
2022-10-18T04:00:58.080Z,10.80
2022-10-18T04:03:29.811Z,10.80
2022-10-18T04:06:03.418Z,10.80
2022-10-18T04:08:35.243Z,10.80
2022-10-18T04:11:12.002Z,10.90
2022-10-18T04:13:43.714Z,10.90
2022-10-18T04:16:15.489Z,10.90
2022-10-18T04:18:47.176Z,11.00
2022-10-18T04:21:18.913Z,11.00
2022-10-18T04:23:51.001Z,11.10
2022-10-18T04:26:22.990Z,11.10
2022-10-18T04:28:54.785Z,11.10
2022-10-18T04:31:26.547Z,11.10
2022-10-18T04:33:58.247Z,11.10
2022-10-18T04:36:30.954Z,11.10
2022-10-18T04:39:02.723Z,11.10
2022-10-18T04:41:34.470Z,11.10
2022-10-18T04:44:06.253Z,11.00
2022-10-18T04:46:37.972Z,11.10
2022-10-18T04:49:09.714Z,11.10
2022-10-18T04:51:41.409Z,11.10
2022-10-18T04:54:13.130Z,11.20
2022-10-18T04:56:44.831Z,11.20
2022-10-18T04:59:16.546Z,11.20
2022-10-18T05:01:48.352Z,11.20
2022-10-18T05:04:20.194Z,11.20
2022-10-18T05:06:51.962Z,11.20
2022-10-18T05:09:24.787Z,11.30
2022-10-18T05:11:56.535Z,11.20
2022-10-18T05:14:28.253Z,11.30
2022-10-18T05:17:00.007Z,11.30
2022-10-18T05:19:31.748Z,11.30
2022-10-18T05:22:03.658Z,11.30
2022-10-18T05:24:35.381Z,11.40
2022-10-18T05:27:07.166Z,11.40
2022-10-18T05:29:38.875Z,11.50
2022-10-18T05:32:10.641Z,11.40
2022-10-18T05:34:42.446Z,11.50
2022-10-18T05:37:14.238Z,11.50
2022-10-18T05:39:46.117Z,11.50
2022-10-18T05:42:17.853Z,11.50
2022-10-18T05:44:49.557Z,11.60
2022-10-18T05:47:21.389Z,11.60
2022-10-18T05:49:53.213Z,11.60
2022-10-18T05:52:25.000Z,11.70
2022-10-18T05:54:56.687Z,11.70
2022-10-18T05:57:28.414Z,11.70
2022-10-18T06:00:00.146Z,11.80
2022-10-18T06:02:31.881Z,11.80
2022-10-18T06:05:03.813Z,11.90
2022-10-18T06:07:35.637Z,11.90
2022-10-18T06:10:07.816Z,12.00
2022-10-18T06:12:39.615Z,12.00
2022-10-18T06:15:11.382Z,12.00
2022-10-18T06:17:43.098Z,12.00
2022-10-18T06:20:14.852Z,12.10
2022-10-18T06:22:46.566Z,12.10
2022-10-18T06:25:18.261Z,12.00
2022-10-18T06:27:50.009Z,12.10
2022-10-18T06:30:21.731Z,12.10
2022-10-18T06:32:53.409Z,12.00
2022-10-18T06:35:25.126Z,12.10
2022-10-18T06:37:57.598Z,12.10
2022-10-18T06:40:30.852Z,12.10
2022-10-18T06:43:19.961Z,12.00
2022-10-18T06:45:52.729Z,12.00
2022-10-18T06:48:24.555Z,12.10
2022-10-18T06:50:58.788Z,12.00
2022-10-18T06:53:32.887Z,12.00
2022-10-18T06:56:10.939Z,12.00
2022-10-18T06:58:42.703Z,12.00
2022-10-18T07:01:17.082Z,12.00
2022-10-18T07:03:52.087Z,12.00
2022-10-18T07:06:24.691Z,12.00
2022-10-18T07:08:57.143Z,12.00
2022-10-18T07:11:29.045Z,12.10
2022-10-18T07:14:03.239Z,12.20
2022-10-18T07:16:35.015Z,12.10
2022-10-18T07:19:06.737Z,12.30
2022-10-18T07:21:38.498Z,12.20
2022-10-18T07:24:10.204Z,12.40
2022-10-18T07:26:42.463Z,12.30
2022-10-18T07:29:14.290Z,12.30
2022-10-18T07:31:46.001Z,12.30
2022-10-18T07:34:17.715Z,12.30
2022-10-18T07:36:49.507Z,12.40
2022-10-18T07:39:21.355Z,12.40
2022-10-18T07:41:53.066Z,12.40
2022-10-18T07:44:24.781Z,12.40
2022-10-18T07:46:56.513Z,12.40
2022-10-18T07:49:28.213Z,12.40
2022-10-18T07:51:59.915Z,12.40
2022-10-18T07:54:31.623Z,12.30
2022-10-18T07:57:04.854Z,12.40
2022-10-18T07:59:36.880Z,12.50
2022-10-18T08:02:09.556Z,12.50
2022-10-18T08:04:41.642Z,12.50
2022-10-18T08:07:13.357Z,12.60
2022-10-18T08:09:45.059Z,12.50
2022-10-18T08:12:16.953Z,12.50
2022-10-18T08:14:48.641Z,12.50
2022-10-18T08:17:20.354Z,12.50
2022-10-18T08:20:04.816Z,12.60
2022-10-18T08:22:43.866Z,12.70
2022-10-18T08:25:15.579Z,12.80
2022-10-18T08:27:47.301Z,12.70
2022-10-18T08:30:19.167Z,12.90
2022-10-18T08:32:50.890Z,12.90
2022-10-18T08:35:22.773Z,12.90
2022-10-18T08:37:54.566Z,12.90
2022-10-18T08:40:27.593Z,13.00
2022-10-18T08:43:01.790Z,13.00
2022-10-18T08:45:42.457Z,13.10
2022-10-18T08:48:25.701Z,13.20
2022-10-18T08:50:58.338Z,13.20
2022-10-18T08:53:40.373Z,13.30
2022-10-18T08:56:15.838Z,13.30
2022-10-18T08:58:47.777Z,13.20
2022-10-18T09:01:26.704Z,13.30
2022-10-18T09:04:20.196Z,13.20
2022-10-18T09:07:19.227Z,13.20
2022-10-18T09:10:04.075Z,13.20
2022-10-18T09:12:51.856Z,13.20
2022-10-18T09:15:34.483Z,13.30
2022-10-18T09:18:16.659Z,13.20
2022-10-18T09:21:04.807Z,13.20
2022-10-18T09:23:49.795Z,13.30
2022-10-18T09:26:23.814Z,13.40
2022-10-18T09:29:00.137Z,13.40
2022-10-18T09:31:40.682Z,13.40
2022-10-18T09:34:34.063Z,13.50
2022-10-18T09:37:12.108Z,13.50
2022-10-18T09:39:45.544Z,13.70
2022-10-18T09:42:36.062Z,13.70
2022-10-18T09:45:47.593Z,13.90
2022-10-18T09:48:33.234Z,13.90
2022-10-18T09:51:11.307Z,13.90
2022-10-18T09:54:10.826Z,13.90
2022-10-18T09:57:03.855Z,13.90
2022-10-18T09:59:49.839Z,14.10
2022-10-18T10:02:23.716Z,14.20
2022-10-18T10:04:56.249Z,14.40
2022-10-18T10:07:35.397Z,14.50
2022-10-18T10:10:13.616Z,14.60
2022-10-18T10:12:46.152Z,14.80
2022-10-18T10:15:29.537Z,14.80
2022-10-18T10:18:17.595Z,14.90
2022-10-18T10:20:55.774Z,15.00
2022-10-18T10:23:37.663Z,15.00
2022-10-18T10:26:34.265Z,15.10
2022-10-18T10:29:44.977Z,15.20
2022-10-18T10:32:19.512Z,15.30
2022-10-18T10:34:51.703Z,15.40
2022-10-18T10:37:25.049Z,15.40
2022-10-18T10:40:22.896Z,15.50
2022-10-18T10:43:18.340Z,15.50
2022-10-18T10:46:21.539Z,15.50
2022-10-18T10:49:15.338Z,15.70
2022-10-18T10:52:09.241Z,15.70
2022-10-18T10:55:05.444Z,15.80
2022-10-18T10:57:48.905Z,15.90
2022-10-18T11:00:42.958Z,16.00
2022-10-18T11:03:29.557Z,16.00
2022-10-18T11:06:01.918Z,16.00
2022-10-18T11:08:41.359Z,16.00
2022-10-18T11:11:30.492Z,16.00
2022-10-18T11:14:24.612Z,16.10
2022-10-18T11:17:28.994Z,16.20
2022-10-18T11:20:12.791Z,16.20
2022-10-18T11:22:56.699Z,16.30
2022-10-18T11:26:08.807Z,16.30
2022-10-18T11:29:01.951Z,16.40
2022-10-18T11:31:57.482Z,16.50
2022-10-18T11:34:53.751Z,16.60
2022-10-18T11:37:48.511Z,16.70
2022-10-18T11:40:41.762Z,16.80
2022-10-18T11:43:57.456Z,16.70
2022-10-18T11:46:53.633Z,16.70
2022-10-18T11:49:47.026Z,16.90
2022-10-18T11:53:03.821Z,16.80
2022-10-18T11:55:46.684Z,16.80
2022-10-18T11:58:38.769Z,16.90
2022-10-18T12:01:43.893Z,17.10
2022-10-18T12:04:23.304Z,17.30
2022-10-18T12:06:57.282Z,17.40
2022-10-18T12:09:40.773Z,17.40
2022-10-18T12:12:26.559Z,17.50
2022-10-18T12:15:06.174Z,17.60
2022-10-18T12:17:46.374Z,17.60
2022-10-18T12:20:33.180Z,17.60
2022-10-18T12:23:26.129Z,17.50
2022-10-18T12:26:07.250Z,17.50
2022-10-18T12:28:49.773Z,17.50
2022-10-18T12:31:43.166Z,17.50
2022-10-18T12:34:20.984Z,17.60
2022-10-18T12:37:16.925Z,17.70
2022-10-18T12:42:47.990Z,17.80
2022-10-18T12:45:19.714Z,18.00
2022-10-18T12:47:52.019Z,18.00
2022-10-18T12:50:39.060Z,18.10
2022-10-18T12:53:12.231Z,18.20
2022-10-18T12:55:51.285Z,18.40
2022-10-18T12:58:31.667Z,18.50
2022-10-18T13:01:06.086Z,18.60
2022-10-18T13:03:51.555Z,18.70
2022-10-18T13:06:24.591Z,16.90
2022-10-18T13:09:28.671Z,18.70
2022-10-18T13:12:20.338Z,18.60
2022-10-18T13:15:12.573Z,18.60
2022-10-18T13:18:05.692Z,18.50
2022-10-18T13:20:51.261Z,18.50
2022-10-18T13:23:41.770Z,18.40
2022-10-18T13:26:31.979Z,18.30
2022-10-18T13:29:26.104Z,18.10
2022-10-18T13:32:07.599Z,18.00
2022-10-18T13:34:39.378Z,17.90
2022-10-18T13:37:11.063Z,17.80
2022-10-18T13:39:42.930Z,17.70
2022-10-18T13:42:14.592Z,17.80
2022-10-18T13:44:46.541Z,17.80
2022-10-18T13:47:37.754Z,17.80
2022-10-18T13:50:31.949Z,17.80
2022-10-18T13:53:17.522Z,17.80
2022-10-18T13:55:55.765Z,17.80
2022-10-18T13:59:05.646Z,17.80
2022-10-18T14:01:50.653Z,17.80
2022-10-18T14:04:40.155Z,17.90
2022-10-18T14:07:12.494Z,17.90
2022-10-18T14:09:57.580Z,18.00
2022-10-18T14:12:48.776Z,18.00
2022-10-18T14:15:37.362Z,18.10
2022-10-18T14:18:18.302Z,18.10
2022-10-18T14:21:12.970Z,18.10
2022-10-18T14:23:46.903Z,18.10
2022-10-18T14:26:20.811Z,18.00
2022-10-18T14:29:06.668Z,18.10
2022-10-18T14:31:38.467Z,18.00
2022-10-18T14:34:15.313Z,18.00
2022-10-18T14:36:48.838Z,18.00
2022-10-18T14:39:23.902Z,17.90
2022-10-18T14:41:57.107Z,17.80
2022-10-18T14:44:31.138Z,17.80
2022-10-18T14:47:16.991Z,17.80
2022-10-18T14:49:51.267Z,17.70
2022-10-18T14:52:35.715Z,17.60
2022-10-18T14:55:18.593Z,17.60
2022-10-18T14:57:50.866Z,17.70
2022-10-18T15:00:35.568Z,17.80
2022-10-18T15:03:14.086Z,17.80
2022-10-18T15:05:53.999Z,17.80
2022-10-18T15:08:30.645Z,17.90
2022-10-18T15:11:03.201Z,17.80
2022-10-18T15:13:37.172Z,17.80
2022-10-18T15:16:17.524Z,17.80
2022-10-18T15:19:14.846Z,17.70
2022-10-18T15:22:19.753Z,17.80
2022-10-18T15:25:06.660Z,17.80
2022-10-18T15:27:39.775Z,17.80
2022-10-18T15:30:19.871Z,17.90
2022-10-18T15:32:56.011Z,17.90
2022-10-18T15:35:31.564Z,17.90
2022-10-18T15:38:24.949Z,17.90
2022-10-18T15:40:56.759Z,17.90
2022-10-18T15:43:28.415Z,18.10
2022-10-18T15:46:06.384Z,17.90
2022-10-18T15:48:41.126Z,17.90
2022-10-18T15:51:46.957Z,17.80
2022-10-18T15:54:19.978Z,17.70
2022-10-18T15:56:51.738Z,17.70
2022-10-18T15:59:28.907Z,17.60
2022-10-18T16:02:00.999Z,17.50
2022-10-18T16:04:33.658Z,17.40
2022-10-18T16:07:05.345Z,17.40
2022-10-18T16:09:37.464Z,17.30
2022-10-18T16:12:09.261Z,17.30
2022-10-18T16:14:41.036Z,17.30
2022-10-18T16:17:16.833Z,17.20
2022-10-18T16:19:48.553Z,17.10
2022-10-18T16:22:20.339Z,17.20
2022-10-18T16:24:52.839Z,17.00
2022-10-18T16:27:25.751Z,17.00
2022-10-18T16:29:57.458Z,16.90
2022-10-18T16:32:29.410Z,16.80
2022-10-18T16:35:01.457Z,16.80
2022-10-18T16:37:33.283Z,16.80
2022-10-18T16:40:25.788Z,16.80
2022-10-18T16:42:57.525Z,16.80
2022-10-18T16:45:29.293Z,16.80
2022-10-18T16:48:01.123Z,16.80
2022-10-18T16:50:34.648Z,16.80
2022-10-18T16:53:07.296Z,16.70
2022-10-18T16:55:41.033Z,16.70
2022-10-18T16:58:17.948Z,16.70
2022-10-18T17:00:50.879Z,16.70
2022-10-18T17:03:23.175Z,16.60
2022-10-18T17:05:56.190Z,16.60
2022-10-18T17:08:28.372Z,16.60
2022-10-18T17:11:01.633Z,16.60
2022-10-18T17:13:33.463Z,16.50
2022-10-18T17:16:05.762Z,16.50
2022-10-18T17:18:37.673Z,16.50
2022-10-18T17:21:09.444Z,16.50
2022-10-18T17:23:41.210Z,16.50
2022-10-18T17:26:29.941Z,16.50
2022-10-18T17:29:05.872Z,16.40
2022-10-18T17:31:38.037Z,16.50
2022-10-18T17:34:09.873Z,16.50
2022-10-18T17:36:41.723Z,16.50
2022-10-18T17:39:13.452Z,16.50
2022-10-18T17:41:45.276Z,16.50
2022-10-18T17:44:17.182Z,16.40
2022-10-18T17:46:49.023Z,16.40
2022-10-18T17:49:22.048Z,16.40
2022-10-18T17:51:53.767Z,16.30
2022-10-18T17:54:25.586Z,16.30
2022-10-18T17:56:57.337Z,16.30
2022-10-18T17:59:29.254Z,16.20
2022-10-18T18:02:01.068Z,16.20
2022-10-18T18:04:32.923Z,16.20
2022-10-18T18:07:04.812Z,16.20
2022-10-18T18:09:36.631Z,16.10
2022-10-18T18:12:08.334Z,16.10
2022-10-18T18:14:40.159Z,16.10
2022-10-18T18:17:12.377Z,16.10
2022-10-18T18:19:44.107Z,16.10
2022-10-18T18:22:15.869Z,16.00
2022-10-18T18:24:47.662Z,16.00
2022-10-18T18:27:19.382Z,15.90
2022-10-18T18:29:51.089Z,16.00
2022-10-18T18:32:22.807Z,16.00
2022-10-18T18:34:54.521Z,15.90
2022-10-18T18:37:26.235Z,15.90
2022-10-18T18:39:57.955Z,15.90
2022-10-18T18:42:29.687Z,15.90
2022-10-18T18:45:01.389Z,15.90
2022-10-18T18:47:35.421Z,15.80
2022-10-18T18:50:07.760Z,15.80
2022-10-18T18:52:39.463Z,15.80
2022-10-18T18:55:11.379Z,15.80
2022-10-18T18:57:43.098Z,15.90
2022-10-18T19:00:15.248Z,15.80
2022-10-18T19:02:46.933Z,15.80
2022-10-18T19:05:18.675Z,15.80
2022-10-18T19:07:50.399Z,15.70
2022-10-18T19:10:22.225Z,15.70
2022-10-18T19:12:54.184Z,15.60
2022-10-18T19:15:26.002Z,15.60
2022-10-18T19:17:57.718Z,15.50
2022-10-18T19:20:29.425Z,15.40
2022-10-18T19:23:01.150Z,15.40
2022-10-18T19:25:32.851Z,15.40
2022-10-18T19:28:04.814Z,15.40
2022-10-18T19:30:36.514Z,15.30
2022-10-18T19:33:08.330Z,15.30
2022-10-18T19:35:40.116Z,15.30
2022-10-18T19:38:11.802Z,15.20
2022-10-18T19:40:43.505Z,15.20
2022-10-18T19:43:15.182Z,15.20
2022-10-18T19:45:46.881Z,15.10
2022-10-18T19:48:18.631Z,15.10
2022-10-18T19:50:50.764Z,15.00
2022-10-18T19:53:22.575Z,15.00
2022-10-18T19:55:58.954Z,15.00
2022-10-18T19:58:30.981Z,14.90
2022-10-18T20:01:02.883Z,14.90
2022-10-18T20:03:35.562Z,14.80
2022-10-18T20:06:07.411Z,14.80
2022-10-18T20:08:39.430Z,14.80
2022-10-18T20:11:14.470Z,14.80
2022-10-18T20:13:46.610Z,14.70
2022-10-18T20:16:25.505Z,14.70
2022-10-18T20:19:01.981Z,14.60
2022-10-18T20:21:37.257Z,14.60
2022-10-18T20:24:10.539Z,14.50
2022-10-18T20:26:43.590Z,14.40
2022-10-18T20:29:15.563Z,14.50
2022-10-18T20:31:47.549Z,14.40
2022-10-18T20:34:25.027Z,14.40
2022-10-18T20:36:56.836Z,14.40
2022-10-18T20:39:28.548Z,14.40
2022-10-18T20:42:00.259Z,14.30
2022-10-18T20:44:33.798Z,14.30
2022-10-18T20:47:05.492Z,14.30
2022-10-18T20:49:37.291Z,14.20
2022-10-18T20:52:09.023Z,14.20
2022-10-18T20:54:40.702Z,14.20
2022-10-18T20:57:12.406Z,14.20
2022-10-18T20:59:44.147Z,14.20
2022-10-18T21:02:15.851Z,14.20
2022-10-18T21:04:47.533Z,14.20
2022-10-18T21:07:19.274Z,14.20
2022-10-18T21:09:51.657Z,14.20
2022-10-18T21:12:24.688Z,14.10
2022-10-18T21:14:58.195Z,14.10
2022-10-18T21:17:30.042Z,14.10
2022-10-18T21:20:01.775Z,14.10
2022-10-18T21:22:33.801Z,14.10
2022-10-18T21:25:06.438Z,14.10
2022-10-18T21:27:38.145Z,14.00
2022-10-18T21:32:42.256Z,14.00
2022-10-18T21:35:14.013Z,14.00
2022-10-18T21:37:45.706Z,13.90
2022-10-18T21:40:17.433Z,13.90
2022-10-18T21:42:49.280Z,13.90
2022-10-18T21:45:21.048Z,13.80
2022-10-18T21:47:52.781Z,13.80
2022-10-18T21:50:24.515Z,13.70
2022-10-18T21:52:56.205Z,13.60
2022-10-18T21:55:27.946Z,13.60
2022-10-18T21:57:59.630Z,13.60
2022-10-18T22:00:31.365Z,13.50
2022-10-18T22:03:10.867Z,13.50
2022-10-18T22:05:42.692Z,13.40
2022-10-18T22:08:14.387Z,13.40
2022-10-18T22:10:46.949Z,13.40
2022-10-18T22:13:19.053Z,14.20
2022-10-18T22:15:51.205Z,13.40
2022-10-18T22:18:22.931Z,13.40
2022-10-18T22:20:56.606Z,13.30
2022-10-18T22:23:36.269Z,13.30
2022-10-18T22:26:13.834Z,13.20
2022-10-18T22:28:48.233Z,13.20
2022-10-18T22:31:22.353Z,13.10
2022-10-18T22:33:59.123Z,13.00
2022-10-18T22:36:31.384Z,13.30
2022-10-18T22:39:05.359Z,13.00
2022-10-18T22:41:37.185Z,12.90
2022-10-18T22:44:12.216Z,12.90
2022-10-18T22:46:43.996Z,12.90
2022-10-18T22:49:15.752Z,13.00
2022-10-18T22:51:47.463Z,12.90
2022-10-18T22:54:19.257Z,12.90
2022-10-18T22:56:51.097Z,12.90
2022-10-18T22:59:23.063Z,12.80
2022-10-18T23:01:54.759Z,12.80
2022-10-18T23:04:26.561Z,12.80
2022-10-18T23:06:58.623Z,12.80
2022-10-18T23:09:30.411Z,12.80
2022-10-18T23:12:02.185Z,13.00
2022-10-18T23:14:33.875Z,12.90
2022-10-18T23:17:05.610Z,12.80
2022-10-18T23:19:37.331Z,12.90
2022-10-18T23:22:09.051Z,12.90
2022-10-18T23:24:40.771Z,12.90
2022-10-18T23:27:12.481Z,13.00
2022-10-18T23:29:44.162Z,12.90
2022-10-18T23:32:15.921Z,12.80
2022-10-18T23:34:47.955Z,12.80
2022-10-18T23:37:19.671Z,12.80
2022-10-18T23:39:51.385Z,12.80
2022-10-18T23:42:23.095Z,12.80
2022-10-18T23:44:54.817Z,12.80
2022-10-18T23:47:26.523Z,12.80
2022-10-18T23:49:58.863Z,12.80
2022-10-18T23:52:30.582Z,12.80
2022-10-18T23:55:02.347Z,12.70
2022-10-18T23:57:34.410Z,12.80
